createdAt,value
2022-10-04T03:59:12.853Z,21.13
2022-10-04T04:00:12.861Z,21.08
2022-10-04T04:01:12.901Z,21.06
2022-10-04T04:02:12.883Z,21.06
2022-10-04T04:03:14.425Z,21.13
2022-10-04T04:04:13.919Z,21.06
2022-10-04T04:05:12.777Z,21.13
2022-10-04T04:06:12.775Z,21.11
2022-10-04T04:07:12.761Z,21.09
2022-10-04T04:08:13.947Z,21.11
2022-10-04T04:09:12.754Z,21.19
2022-10-04T04:10:16.735Z,21.18
2022-10-04T04:11:13.739Z,21.19
2022-10-04T04:12:12.743Z,21.27
2022-10-04T04:13:12.772Z,21.21
2022-10-04T04:14:14.445Z,21.19
2022-10-04T04:15:14.430Z,21.31
2022-10-04T04:16:13.794Z,21.25
2022-10-04T04:17:14.416Z,21.22
2022-10-04T04:18:13.714Z,21.23
2022-10-04T04:19:14.473Z,21.27
2022-10-04T04:20:12.718Z,21.34
2022-10-04T04:21:14.424Z,21.31
2022-10-04T04:22:15.418Z,21.34
2022-10-04T04:23:14.448Z,21.34
2022-10-04T04:24:14.429Z,21.36
2022-10-04T04:25:14.439Z,21.34
2022-10-04T04:26:12.689Z,21.34
2022-10-04T04:27:14.425Z,21.41
2022-10-04T04:28:13.736Z,21.38
2022-10-04T04:29:13.691Z,21.38
2022-10-04T04:30:14.463Z,21.41
2022-10-04T04:31:12.735Z,21.43
2022-10-04T04:32:12.742Z,21.46
2022-10-04T04:33:12.669Z,21.49
2022-10-04T04:34:13.663Z,21.52
2022-10-04T04:35:14.473Z,21.52
2022-10-04T04:36:13.659Z,21.48
2022-10-04T04:37:12.687Z,21.49
2022-10-04T04:38:12.652Z,21.53
2022-10-04T04:39:14.476Z,21.64
2022-10-04T04:40:14.457Z,21.51
2022-10-04T04:41:14.442Z,21.59
2022-10-04T04:42:14.457Z,21.59
2022-10-04T04:43:14.455Z,21.61
2022-10-04T04:44:15.974Z,21.62
2022-10-04T04:45:14.466Z,21.55
2022-10-04T04:46:27.066Z,21.64
2022-10-04T04:47:18.117Z,21.61
2022-10-04T04:48:14.454Z,21.66
2022-10-04T04:49:14.063Z,21.67
2022-10-04T04:50:14.445Z,21.67
2022-10-04T04:51:14.460Z,21.64
2022-10-04T04:52:14.457Z,21.62
2022-10-04T04:53:14.484Z,21.71
2022-10-04T04:54:14.491Z,21.68
2022-10-04T04:55:14.470Z,21.74
2022-10-04T04:56:18.003Z,21.73
2022-10-04T04:57:14.449Z,21.66
2022-10-04T04:58:14.491Z,21.76
2022-10-04T04:59:14.488Z,21.71
2022-10-04T05:00:14.450Z,21.80
2022-10-04T05:01:14.515Z,21.77
2022-10-04T05:02:14.529Z,21.82
2022-10-04T05:03:14.460Z,21.73
2022-10-04T05:04:13.985Z,21.76
2022-10-04T05:05:12.567Z,21.85
2022-10-04T05:06:12.567Z,21.86
2022-10-04T05:07:12.562Z,21.74
2022-10-04T05:08:12.563Z,21.82
2022-10-04T05:09:15.060Z,21.82
2022-10-04T05:10:14.461Z,21.82
2022-10-04T05:11:14.467Z,21.80
2022-10-04T05:12:14.462Z,21.86
2022-10-04T05:13:14.514Z,21.82
2022-10-04T05:14:14.512Z,21.82
2022-10-04T05:15:15.349Z,21.82
2022-10-04T05:16:14.530Z,21.74
2022-10-04T05:17:14.486Z,21.83
2022-10-04T05:18:14.498Z,21.89
2022-10-04T05:19:14.478Z,21.89
2022-10-04T05:20:14.508Z,21.86
2022-10-04T05:21:14.485Z,21.85
2022-10-04T05:22:14.468Z,21.83
2022-10-04T05:23:12.535Z,21.86
2022-10-04T05:24:12.505Z,21.89
2022-10-04T05:25:14.507Z,21.92
2022-10-04T05:26:12.501Z,21.90
2022-10-04T05:27:12.528Z,21.94
2022-10-04T05:28:12.525Z,21.89
2022-10-04T05:29:12.503Z,21.94
2022-10-04T05:30:13.985Z,21.86
2022-10-04T05:31:12.525Z,21.94
2022-10-04T05:32:13.998Z,21.93
2022-10-04T05:33:12.493Z,21.90
2022-10-04T05:34:12.502Z,21.94
2022-10-04T05:35:13.516Z,21.89
2022-10-04T05:36:12.484Z,21.94
2022-10-04T05:37:13.998Z,21.97
2022-10-04T05:38:12.490Z,21.92
2022-10-04T05:39:13.512Z,21.90
2022-10-04T05:40:13.505Z,21.92
2022-10-04T05:41:13.550Z,21.93
2022-10-04T05:42:12.470Z,21.96
2022-10-04T05:43:13.993Z,22.04
2022-10-04T05:44:13.502Z,22.00
2022-10-04T05:45:12.594Z,21.97
2022-10-04T05:46:12.556Z,22.00
2022-10-04T05:47:14.029Z,22.00
2022-10-04T05:48:12.471Z,21.97
2022-10-04T05:49:18.877Z,21.97
2022-10-04T05:50:12.751Z,21.99
2022-10-04T05:51:12.440Z,21.93
2022-10-04T05:52:14.178Z,22.07
2022-10-04T05:53:12.429Z,21.99
2022-10-04T05:54:12.456Z,21.96
2022-10-04T05:55:13.548Z,22.05
2022-10-04T05:56:13.416Z,22.07
2022-10-04T05:57:14.111Z,22.05
2022-10-04T05:58:12.947Z,22.04
2022-10-04T05:59:13.215Z,22.04
2022-10-04T06:00:14.032Z,22.08
2022-10-04T06:01:16.265Z,22.14
2022-10-04T06:02:15.519Z,22.11
2022-10-04T06:03:12.923Z,22.09
2022-10-04T06:04:14.164Z,22.08
2022-10-04T06:05:14.039Z,22.07
2022-10-04T06:06:14.160Z,22.11
2022-10-04T06:07:14.166Z,22.09
2022-10-04T06:08:13.552Z,22.11
2022-10-04T06:09:12.478Z,22.14
2022-10-04T06:10:12.398Z,22.12
2022-10-04T06:11:12.385Z,22.11
2022-10-04T06:12:14.523Z,22.12
2022-10-04T06:13:14.039Z,22.08
2022-10-04T06:14:14.021Z,22.22
2022-10-04T06:15:14.054Z,22.05
2022-10-04T06:16:14.105Z,22.22
2022-10-04T06:17:14.046Z,22.22
2022-10-04T06:18:14.035Z,22.09
2022-10-04T06:19:14.030Z,22.09
2022-10-04T06:20:14.041Z,22.15
2022-10-04T06:21:13.384Z,22.26
2022-10-04T06:22:14.059Z,22.15
2022-10-04T06:23:14.142Z,22.15
2022-10-04T06:24:14.028Z,22.16
2022-10-04T06:25:15.560Z,22.23
2022-10-04T06:26:12.359Z,22.24
2022-10-04T06:27:14.072Z,22.26
2022-10-04T06:28:13.476Z,22.27
2022-10-04T06:29:14.066Z,22.26
2022-10-04T06:30:14.073Z,22.30
2022-10-04T06:31:14.087Z,22.22
2022-10-04T06:32:14.041Z,22.20
2022-10-04T06:33:14.078Z,22.29
2022-10-04T06:34:14.066Z,22.29
2022-10-04T06:35:14.171Z,22.29
2022-10-04T06:36:14.073Z,22.29
2022-10-04T06:37:14.059Z,22.34
2022-10-04T06:38:14.102Z,22.23
2022-10-04T06:39:14.097Z,22.31
2022-10-04T06:40:14.061Z,22.31
2022-10-04T06:41:14.044Z,22.33
2022-10-04T06:42:14.235Z,22.30
2022-10-04T06:43:14.033Z,22.38
2022-10-04T06:44:12.319Z,22.30
2022-10-04T06:45:14.052Z,22.45
2022-10-04T06:46:14.087Z,22.36
2022-10-04T06:47:14.122Z,22.42
2022-10-04T06:48:14.100Z,22.41
2022-10-04T06:49:13.086Z,22.46
2022-10-04T06:50:14.096Z,22.41
2022-10-04T06:51:12.999Z,22.44
2022-10-04T06:52:17.333Z,22.49
2022-10-04T06:53:14.063Z,22.44
2022-10-04T06:54:14.081Z,22.48
2022-10-04T06:55:12.254Z,22.45
2022-10-04T06:56:13.249Z,22.49
2022-10-04T06:57:14.063Z,22.54
2022-10-04T06:58:12.272Z,22.45
2022-10-04T06:59:13.080Z,22.45
2022-10-04T07:00:14.075Z,22.44
2022-10-04T07:01:12.338Z,22.52
2022-10-04T07:02:12.322Z,22.60
2022-10-04T07:03:12.239Z,22.57
2022-10-04T07:04:12.241Z,22.52
2022-10-04T07:05:14.100Z,22.64
2022-10-04T07:06:12.284Z,22.61
2022-10-04T07:07:12.227Z,22.57
2022-10-04T07:08:12.222Z,22.61
2022-10-04T07:09:12.251Z,22.64
2022-10-04T07:11:13.717Z,22.66
2022-10-04T07:12:12.236Z,22.59
2022-10-04T07:13:14.073Z,22.67
2022-10-04T07:14:12.244Z,22.61
2022-10-04T07:15:15.201Z,22.64
2022-10-04T07:16:12.301Z,22.64
2022-10-04T07:17:14.085Z,22.63
2022-10-04T07:18:12.194Z,22.59
2022-10-04T07:19:14.085Z,22.61
2022-10-04T07:20:14.083Z,22.61
2022-10-04T07:21:13.591Z,22.54
2022-10-04T07:22:13.583Z,22.59
2022-10-04T07:23:14.176Z,22.61
2022-10-04T07:24:13.200Z,22.64
2022-10-04T07:25:14.118Z,22.57
2022-10-04T07:26:14.124Z,22.67
2022-10-04T07:27:14.196Z,22.61
2022-10-04T07:28:14.187Z,22.63
2022-10-04T07:29:14.147Z,22.71
2022-10-04T07:30:14.250Z,22.71
2022-10-04T07:31:13.730Z,22.73
2022-10-04T07:32:12.215Z,22.76
2022-10-04T07:33:12.180Z,22.82
2022-10-04T07:34:14.709Z,22.86
2022-10-04T07:35:13.728Z,22.79
2022-10-04T07:36:12.153Z,22.89
2022-10-04T07:37:13.140Z,22.86
2022-10-04T07:38:19.411Z,22.99
2022-10-04T07:39:15.097Z,22.91
2022-10-04T07:40:13.612Z,23.01
2022-10-04T07:41:12.148Z,23.00
2022-10-04T07:42:12.272Z,23.07
2022-10-04T07:43:12.221Z,23.07
2022-10-04T07:44:14.125Z,23.04
2022-10-04T07:45:12.143Z,23.07
2022-10-04T07:46:12.201Z,23.12
2022-10-04T07:47:14.108Z,23.19
2022-10-04T07:48:12.379Z,23.21
2022-10-04T07:49:12.817Z,23.34
2022-10-04T07:50:21.784Z,23.28
2022-10-04T07:51:12.146Z,23.38
2022-10-04T07:52:12.212Z,23.41
2022-10-04T07:53:12.151Z,23.35
2022-10-04T07:54:12.131Z,23.37
2022-10-04T07:55:13.678Z,23.53
2022-10-04T07:56:13.620Z,23.48
2022-10-04T07:57:14.697Z,23.52
2022-10-04T07:58:13.149Z,23.56
2022-10-04T07:59:12.775Z,23.57
2022-10-04T08:00:13.105Z,23.59
2022-10-04T08:01:13.728Z,23.66
2022-10-04T08:02:13.788Z,23.72
2022-10-04T08:03:13.655Z,23.77
2022-10-04T08:04:13.737Z,23.79
2022-10-04T08:06:13.917Z,23.82
2022-10-04T08:07:13.662Z,23.81
2022-10-04T08:08:13.684Z,23.90
2022-10-04T08:09:13.641Z,23.94
2022-10-04T08:10:13.680Z,23.93
2022-10-04T08:11:13.626Z,23.97
2022-10-04T08:12:13.624Z,23.99
2022-10-04T08:13:13.632Z,24.07
2022-10-04T08:14:13.711Z,24.12
2022-10-04T08:15:13.650Z,24.08
2022-10-04T08:16:13.855Z,24.17
2022-10-04T08:17:15.602Z,24.15
2022-10-04T08:18:13.621Z,24.19
2022-10-04T08:19:13.657Z,24.26
2022-10-04T08:20:13.651Z,24.19
2022-10-04T08:21:13.678Z,24.14
2022-10-04T08:22:13.627Z,24.26
2022-10-04T08:23:13.084Z,24.32
2022-10-04T08:24:13.654Z,24.24
2022-10-04T08:25:13.727Z,24.29
2022-10-04T08:26:13.644Z,24.27
2022-10-04T08:27:13.684Z,24.30
2022-10-04T08:28:13.744Z,24.30
2022-10-04T08:29:13.672Z,24.39
2022-10-04T08:30:13.752Z,24.33
2022-10-04T08:31:13.719Z,24.44
2022-10-04T08:32:13.634Z,24.40
2022-10-04T08:33:12.102Z,24.40
2022-10-04T08:34:13.736Z,24.52
2022-10-04T08:35:13.637Z,24.42
2022-10-04T08:36:13.670Z,24.48
2022-10-04T08:37:13.070Z,24.54
2022-10-04T08:38:13.061Z,24.64
2022-10-04T08:39:13.183Z,24.58
2022-10-04T08:40:14.684Z,24.59
2022-10-04T08:41:12.070Z,24.59
2022-10-04T08:42:14.631Z,24.67
2022-10-04T08:43:12.082Z,24.61
2022-10-04T08:44:13.777Z,24.66
2022-10-04T08:45:12.084Z,24.71
2022-10-04T08:46:12.126Z,24.71
2022-10-04T08:47:13.239Z,24.74
2022-10-04T08:48:12.065Z,24.75
2022-10-04T08:49:13.173Z,24.70
2022-10-04T08:50:13.166Z,24.69
2022-10-04T08:51:13.127Z,24.74
2022-10-04T08:52:13.169Z,24.77
2022-10-04T08:53:13.067Z,24.74
2022-10-04T08:54:13.092Z,24.82
2022-10-04T08:55:13.657Z,24.82
2022-10-04T08:56:13.171Z,24.85
2022-10-04T08:57:16.302Z,24.78
2022-10-04T08:58:13.253Z,24.83
2022-10-04T08:59:13.806Z,24.87
2022-10-04T09:00:13.704Z,24.93
2022-10-04T09:01:13.239Z,24.94
2022-10-04T09:02:13.927Z,24.96
2022-10-04T09:03:13.676Z,24.94
2022-10-04T09:04:13.670Z,24.96
2022-10-04T09:06:13.718Z,24.96
2022-10-04T09:07:13.059Z,25.05
2022-10-04T09:08:13.085Z,24.97
2022-10-04T09:09:13.076Z,25.02
2022-10-04T09:10:13.042Z,25.01
2022-10-04T09:11:13.207Z,25.11
2022-10-04T09:12:13.049Z,25.12
2022-10-04T09:13:13.053Z,25.05
2022-10-04T09:14:13.059Z,25.05
2022-10-04T09:15:13.234Z,25.07
2022-10-04T09:16:13.747Z,25.09
2022-10-04T09:17:13.060Z,25.14
2022-10-04T09:18:13.134Z,25.15
2022-10-04T09:19:13.132Z,25.20
2022-10-04T09:20:37.240Z,25.20
2022-10-04T09:21:13.767Z,25.12
2022-10-04T09:22:13.235Z,25.19
2022-10-04T09:23:17.321Z,25.19
2022-10-04T09:24:13.687Z,25.27
2022-10-04T09:25:13.060Z,25.29
2022-10-04T09:26:13.859Z,25.19
2022-10-04T09:27:19.871Z,25.26
2022-10-04T09:28:12.078Z,25.27
2022-10-04T09:29:19.548Z,25.27
2022-10-04T09:30:13.048Z,25.29
2022-10-04T09:31:14.048Z,25.27
2022-10-04T09:32:12.207Z,25.32
2022-10-04T09:33:13.794Z,25.39
2022-10-04T09:34:12.722Z,25.37
2022-10-04T09:35:12.103Z,25.34
2022-10-04T09:36:14.847Z,25.34
2022-10-04T09:37:12.070Z,25.44
2022-10-04T09:38:13.741Z,25.45
2022-10-04T09:39:29.400Z,25.45
2022-10-04T09:40:12.100Z,25.42
2022-10-04T09:41:13.810Z,25.48
2022-10-04T09:42:20.272Z,25.48
2022-10-04T09:43:12.088Z,25.54
2022-10-04T09:44:33.610Z,25.56
2022-10-04T09:45:12.086Z,25.56
2022-10-04T09:46:12.160Z,25.54
2022-10-04T09:47:14.337Z,25.63
2022-10-04T09:48:13.728Z,25.63
2022-10-04T09:49:12.092Z,25.63
2022-10-04T09:50:12.064Z,25.70
2022-10-04T09:51:12.081Z,25.71
2022-10-04T09:52:14.239Z,25.82
2022-10-04T09:53:13.055Z,25.76
2022-10-04T09:54:13.718Z,25.84
2022-10-04T09:55:12.069Z,25.81
2022-10-04T09:56:14.722Z,25.78
2022-10-04T09:57:13.067Z,25.84
2022-10-04T09:58:13.780Z,25.86
2022-10-04T09:59:12.065Z,25.86
2022-10-04T10:00:13.777Z,25.99
2022-10-04T10:01:13.790Z,25.86
2022-10-04T10:02:13.047Z,25.97
2022-10-04T10:13:21.813Z,26.31
2022-10-04T10:14:20.136Z,26.22
2022-10-04T10:15:21.716Z,26.30
2022-10-04T10:16:21.800Z,26.34
2022-10-04T10:17:21.709Z,26.30
2022-10-04T10:18:21.178Z,26.42
2022-10-04T10:19:25.008Z,26.50
2022-10-04T10:20:21.755Z,26.41
2022-10-04T10:21:21.712Z,26.50
2022-10-04T10:22:21.154Z,26.49
2022-10-04T10:23:21.716Z,26.56
2022-10-04T10:24:21.726Z,26.52
2022-10-04T10:25:21.737Z,26.64
2022-10-04T10:26:21.803Z,26.63
2022-10-04T10:27:21.751Z,26.68
2022-10-04T10:28:21.803Z,26.68
2022-10-04T10:29:21.882Z,26.84
2022-10-04T10:30:21.732Z,26.97
2022-10-04T10:31:21.782Z,26.87
2022-10-04T10:32:21.747Z,26.90
2022-10-04T10:33:20.255Z,27.04
2022-10-04T10:34:20.306Z,27.04
2022-10-04T10:35:20.363Z,27.12
2022-10-04T10:36:22.416Z,27.09
2022-10-04T10:37:20.128Z,27.19
2022-10-04T10:38:26.495Z,27.28
2022-10-04T10:39:21.986Z,27.15
2022-10-04T10:40:21.281Z,27.30
2022-10-04T10:41:20.485Z,27.27
2022-10-04T10:42:20.253Z,27.33
2022-10-04T10:43:20.266Z,27.30
2022-10-04T10:44:21.759Z,27.36
2022-10-04T10:45:21.765Z,27.45
2022-10-04T10:46:21.855Z,27.43
2022-10-04T10:47:21.754Z,27.48
2022-10-04T10:48:22.762Z,27.51
2022-10-04T10:49:22.486Z,27.64
2022-10-04T10:50:21.737Z,27.62
2022-10-04T10:51:20.417Z,27.55
2022-10-04T10:52:21.924Z,27.66
2022-10-04T10:53:35.388Z,27.72
2022-10-04T10:54:20.266Z,27.81
2022-10-04T10:55:20.475Z,27.90
2022-10-04T10:56:24.736Z,27.91
2022-10-04T10:57:20.266Z,27.98
2022-10-04T10:58:20.387Z,28.02
2022-10-04T10:59:20.310Z,28.03
2022-10-04T11:00:20.332Z,28.08
2022-10-04T11:01:22.397Z,28.12
2022-10-04T11:02:21.806Z,28.12
2022-10-04T11:03:23.966Z,28.20
2022-10-04T11:04:20.226Z,28.26
2022-10-04T11:05:20.222Z,28.31
2022-10-04T11:06:22.274Z,28.35
2022-10-04T11:07:21.343Z,28.39
2022-10-04T11:08:21.246Z,28.48
2022-10-04T11:09:21.219Z,28.48
2022-10-04T11:10:21.322Z,28.61
2022-10-04T11:11:21.251Z,28.61
2022-10-04T11:12:21.238Z,28.53
2022-10-04T11:13:21.338Z,28.72
2022-10-04T11:14:20.387Z,28.72
2022-10-04T11:15:22.199Z,28.75
2022-10-04T11:16:20.410Z,28.80
2022-10-04T11:17:20.247Z,28.91
2022-10-04T11:18:21.319Z,28.90
2022-10-04T11:19:23.754Z,28.95
2022-10-04T11:20:23.268Z,29.05
2022-10-04T11:21:22.197Z,29.06
2022-10-04T11:22:20.271Z,29.11
2022-10-04T11:23:26.518Z,29.23
2022-10-04T11:24:25.940Z,29.29
2022-10-04T11:25:24.802Z,29.32
2022-10-04T11:26:20.964Z,29.38
2022-10-04T11:27:24.345Z,29.43
2022-10-04T11:28:22.463Z,29.45
2022-10-04T11:29:21.087Z,29.60
2022-10-04T11:30:20.319Z,29.55
2022-10-04T11:31:21.836Z,29.69
2022-10-04T11:32:20.363Z,29.79
2022-10-04T11:33:27.098Z,29.84
2022-10-04T11:34:20.305Z,29.81
2022-10-04T11:35:23.579Z,29.95
2022-10-04T11:36:20.936Z,30.03
2022-10-04T11:37:22.314Z,30.10
2022-10-04T11:38:20.334Z,30.10
2022-10-04T11:39:20.425Z,30.24
2022-10-04T11:40:20.441Z,30.24
2022-10-04T11:41:20.822Z,30.21
2022-10-04T11:42:22.381Z,30.35
2022-10-04T11:44:22.315Z,30.44
2022-10-04T11:45:22.399Z,30.52
2022-10-04T11:46:20.421Z,30.60
2022-10-04T11:47:20.386Z,30.66
2022-10-04T11:48:20.359Z,30.71
2022-10-04T11:49:22.895Z,30.89
2022-10-04T11:50:20.384Z,30.85
2022-10-04T11:51:21.390Z,30.86
2022-10-04T11:52:21.829Z,30.86
2022-10-04T11:53:21.414Z,31.07
2022-10-04T11:54:22.376Z,31.16
2022-10-04T11:55:20.390Z,31.15
2022-10-04T11:56:22.528Z,31.19
2022-10-04T11:57:22.330Z,31.31
2022-10-04T11:58:22.367Z,31.36
2022-10-04T11:59:22.369Z,31.44
2022-10-04T12:00:22.360Z,31.53
2022-10-04T12:01:23.141Z,31.58
2022-10-04T12:02:21.559Z,31.71
2022-10-04T12:03:20.541Z,31.77
2022-10-04T12:04:20.521Z,31.80
2022-10-04T12:05:23.382Z,31.95
2022-10-04T12:06:22.865Z,32.00
2022-10-04T12:07:21.852Z,32.05
2022-10-04T12:08:20.460Z,32.15
2022-10-04T12:09:20.474Z,32.27
2022-10-04T12:10:21.467Z,32.35
2022-10-04T12:11:21.544Z,32.46
2022-10-04T12:12:21.912Z,32.53
2022-10-04T12:13:22.357Z,32.65
2022-10-04T12:14:20.622Z,32.68
2022-10-04T12:15:22.505Z,32.75
2022-10-04T12:16:22.315Z,32.89
2022-10-04T12:17:20.713Z,32.99
2022-10-04T12:18:22.746Z,32.98
2022-10-04T12:19:21.892Z,33.08
2022-10-04T12:20:20.626Z,33.18
2022-10-04T12:21:22.508Z,33.21
2022-10-04T12:22:22.367Z,33.32
2022-10-04T12:23:22.378Z,33.34
2022-10-04T12:24:22.347Z,33.50
2022-10-04T12:25:22.409Z,33.53
2022-10-04T12:26:22.381Z,33.58
2022-10-04T12:27:22.392Z,33.75
2022-10-04T12:28:22.432Z,33.78
2022-10-04T12:29:22.376Z,33.84
2022-10-04T12:30:22.346Z,33.89
2022-10-04T12:31:22.475Z,33.97
2022-10-04T12:32:20.617Z,34.11
2022-10-04T12:33:20.611Z,34.14
2022-10-04T12:34:20.687Z,34.22
2022-10-04T12:35:21.651Z,34.27
2022-10-04T12:36:20.639Z,34.39
2022-10-04T12:37:21.910Z,34.40
2022-10-04T12:38:20.768Z,34.52
2022-10-04T12:39:20.709Z,34.61
2022-10-04T12:40:22.560Z,34.74
2022-10-04T12:41:20.674Z,34.84
2022-10-04T12:42:21.660Z,34.78
2022-10-04T12:43:21.679Z,34.78
2022-10-04T12:44:21.679Z,34.89
2022-10-04T12:45:23.159Z,34.99
2022-10-04T12:46:21.841Z,35.06
2022-10-04T12:47:21.712Z,35.04
2022-10-04T12:48:20.743Z,35.20
2022-10-04T12:49:22.381Z,35.21
2022-10-04T12:50:21.743Z,35.24
2022-10-04T12:51:21.900Z,35.27
2022-10-04T12:52:21.749Z,35.45
2022-10-04T12:53:21.855Z,35.40
2022-10-04T12:54:21.763Z,35.46
2022-10-04T12:55:22.451Z,35.52
2022-10-04T12:56:21.809Z,35.64
2022-10-04T12:57:21.776Z,35.64
2022-10-04T12:58:20.790Z,35.69
2022-10-04T12:59:22.402Z,35.68
2022-10-04T13:00:21.917Z,35.80
2022-10-04T13:01:21.908Z,35.80
2022-10-04T13:02:22.084Z,35.83
2022-10-04T13:03:20.841Z,35.87
2022-10-04T13:04:22.451Z,36.02
2022-10-04T13:05:20.879Z,35.96
2022-10-04T13:06:21.938Z,36.06
2022-10-04T13:07:20.875Z,36.02
2022-10-04T13:08:20.875Z,36.06
2022-10-04T13:09:22.425Z,36.14
2022-10-04T13:10:25.906Z,36.17
2022-10-04T13:11:22.425Z,36.15
2022-10-04T13:12:20.956Z,36.28
2022-10-04T13:13:22.410Z,36.22
2022-10-04T13:14:21.909Z,36.30
2022-10-04T13:15:22.979Z,36.33
2022-10-04T13:17:32.662Z,36.44
2022-10-04T13:18:22.913Z,36.51
2022-10-04T13:19:23.953Z,36.53
2022-10-04T13:20:21.004Z,36.51
2022-10-04T13:21:20.985Z,36.52
2022-10-04T13:22:43.901Z,36.67
2022-10-04T13:23:22.920Z,36.63
2022-10-04T13:24:23.948Z,36.74
2022-10-04T13:25:22.957Z,36.70
2022-10-04T13:26:22.982Z,36.74
2022-10-04T13:27:23.930Z,36.77
2022-10-04T13:28:23.088Z,36.80
2022-10-04T13:29:22.453Z,36.83
2022-10-04T13:30:21.088Z,36.86
2022-10-04T13:31:21.115Z,36.90
2022-10-04T13:32:21.094Z,36.90
2022-10-04T13:33:21.967Z,36.93
2022-10-04T13:34:22.455Z,36.93
2022-10-04T13:35:21.180Z,36.96
2022-10-04T13:36:21.106Z,36.99
2022-10-04T13:37:21.117Z,37.00
2022-10-04T13:38:22.461Z,37.00
2022-10-04T13:39:21.155Z,36.95
2022-10-04T13:40:22.495Z,37.08
2022-10-04T13:41:21.181Z,36.97
2022-10-04T13:42:21.257Z,37.00
2022-10-04T13:43:21.202Z,36.99
2022-10-04T13:44:21.938Z,37.04
2022-10-04T13:45:21.363Z,37.08
2022-10-04T13:46:23.675Z,36.99
2022-10-04T13:47:21.558Z,36.96
2022-10-04T13:48:22.187Z,37.07
2022-10-04T13:49:21.283Z,37.17
2022-10-04T13:50:23.086Z,37.08
2022-10-04T13:51:21.314Z,37.09
2022-10-04T13:52:27.485Z,37.17
2022-10-04T13:53:21.363Z,37.15
2022-10-04T13:54:22.983Z,37.18
2022-10-04T13:55:21.274Z,37.17
2022-10-04T13:56:22.985Z,37.14
2022-10-04T13:57:22.989Z,37.19
2022-10-04T13:58:21.300Z,37.18
2022-10-04T13:59:22.495Z,37.11
2022-10-04T14:00:21.361Z,37.22
2022-10-04T14:01:22.636Z,37.07
2022-10-04T14:02:21.334Z,37.07
2022-10-04T14:03:21.425Z,37.12
2022-10-04T14:04:22.998Z,37.08
2022-10-04T14:05:22.995Z,37.12
2022-10-04T14:06:22.991Z,37.00
2022-10-04T14:07:21.379Z,37.07
2022-10-04T14:08:21.399Z,37.05
2022-10-04T14:09:22.998Z,36.97
2022-10-04T14:10:22.996Z,36.99
2022-10-04T14:11:21.433Z,36.96
2022-10-04T14:12:22.998Z,37.00
2022-10-04T14:13:21.459Z,36.95
2022-10-04T14:14:21.457Z,36.97
2022-10-04T14:15:23.017Z,36.89
2022-10-04T14:16:21.525Z,36.95
2022-10-04T14:17:23.025Z,36.90
2022-10-04T14:18:27.006Z,36.84
2022-10-04T14:19:23.058Z,36.81
2022-10-04T14:20:23.001Z,36.78
2022-10-04T14:21:21.507Z,36.74
2022-10-04T14:22:22.519Z,36.75
2022-10-04T14:23:22.540Z,36.70
2022-10-04T14:24:21.534Z,36.71
2022-10-04T14:25:23.515Z,36.55
2022-10-04T14:26:22.551Z,36.58
2022-10-04T14:27:21.570Z,36.55
2022-10-04T14:28:23.545Z,36.43
2022-10-04T14:29:21.575Z,36.37
2022-10-04T14:30:23.546Z,36.24
2022-10-04T14:31:21.729Z,36.28
2022-10-04T14:32:23.603Z,36.02
2022-10-04T14:33:23.030Z,35.84
2022-10-04T14:34:21.614Z,35.80
2022-10-04T14:35:23.530Z,35.60
2022-10-04T14:36:23.032Z,35.50
2022-10-04T14:37:21.629Z,35.38
2022-10-04T14:38:26.776Z,35.31
2022-10-04T14:39:23.527Z,35.27
2022-10-04T14:40:22.654Z,35.12
2022-10-04T14:41:21.671Z,34.99
2022-10-04T14:42:23.537Z,34.84
2022-10-04T14:43:21.698Z,34.79
2022-10-04T14:44:21.692Z,34.66
2022-10-04T14:45:23.563Z,34.56
2022-10-04T14:46:23.538Z,34.41
2022-10-04T14:47:23.581Z,34.24
2022-10-04T14:48:23.563Z,34.12
2022-10-04T14:49:23.560Z,33.87
2022-10-04T14:50:23.555Z,33.71
2022-10-04T14:51:23.530Z,33.46
2022-10-04T14:52:23.535Z,33.32
2022-10-04T14:53:23.595Z,33.11
2022-10-04T14:54:23.559Z,32.86
2022-10-04T14:55:26.214Z,32.84
2022-10-04T14:56:22.777Z,32.65
2022-10-04T14:57:23.563Z,32.43
2022-10-04T14:58:23.577Z,32.19
2022-10-04T14:59:23.561Z,32.19
2022-10-04T15:00:23.563Z,31.98
2022-10-04T15:01:23.627Z,31.72
2022-10-04T15:02:23.568Z,31.59
2022-10-04T15:03:23.574Z,31.50
2022-10-04T15:04:23.587Z,31.31
2022-10-04T15:05:23.551Z,31.16
2022-10-04T15:06:23.578Z,31.06
2022-10-04T15:07:23.562Z,30.85
2022-10-04T15:08:23.550Z,30.85
2022-10-04T15:09:23.650Z,30.63
2022-10-04T15:10:23.575Z,30.54
2022-10-04T15:11:23.583Z,30.42
2022-10-04T15:12:32.950Z,30.24
2022-10-04T15:13:21.882Z,30.03
2022-10-04T15:14:22.843Z,29.92
2022-10-04T15:15:23.141Z,29.82
2022-10-04T15:16:22.699Z,29.63
2022-10-04T15:17:21.848Z,29.48
2022-10-04T15:18:21.892Z,29.47
2022-10-04T15:19:23.089Z,29.40
2022-10-04T15:20:23.576Z,29.17
2022-10-04T15:21:23.565Z,29.13
2022-10-04T15:22:23.581Z,29.01
2022-10-04T15:23:23.581Z,28.91
2022-10-04T15:24:23.618Z,28.85
2022-10-04T15:25:23.601Z,28.73
2022-10-04T15:26:23.583Z,28.63
2022-10-04T15:27:23.576Z,28.58
2022-10-04T15:28:23.676Z,28.48
2022-10-04T15:29:23.693Z,28.38
2022-10-04T15:30:23.576Z,28.27
2022-10-04T15:31:23.687Z,28.16
2022-10-04T15:32:23.585Z,28.14
2022-10-04T15:33:23.581Z,28.06
2022-10-04T15:34:23.586Z,27.89
2022-10-04T15:35:23.119Z,27.90
2022-10-04T15:36:23.587Z,27.79
2022-10-04T15:37:23.629Z,27.59
2022-10-04T15:38:23.597Z,27.62
2022-10-04T15:39:23.588Z,27.51
2022-10-04T15:40:23.618Z,27.45
2022-10-04T15:41:23.587Z,27.31
2022-10-04T15:42:22.906Z,27.30
2022-10-04T15:43:23.154Z,27.11
2022-10-04T15:44:21.916Z,27.11
2022-10-04T15:45:22.918Z,27.05
2022-10-04T15:46:21.989Z,26.96
2022-10-04T15:47:23.057Z,26.86
2022-10-04T15:48:23.118Z,26.78
2022-10-04T15:49:21.921Z,26.78
2022-10-04T15:50:21.914Z,26.74
2022-10-04T15:51:23.614Z,26.60
2022-10-04T15:52:23.600Z,26.61
2022-10-04T15:53:23.643Z,26.56
2022-10-04T15:54:22.909Z,26.38
2022-10-04T15:55:21.922Z,26.37
2022-10-04T15:56:21.908Z,26.34
2022-10-04T15:57:23.624Z,26.23
2022-10-04T15:58:22.915Z,26.31
2022-10-04T15:59:22.915Z,26.12
2022-10-04T16:00:22.931Z,26.11
2022-10-04T16:12:33.813Z,25.34
2022-10-04T16:13:34.299Z,25.44
2022-10-04T16:14:34.280Z,25.32
2022-10-04T16:15:34.355Z,25.32
2022-10-04T16:16:34.317Z,25.20
2022-10-04T16:17:34.286Z,25.19
2022-10-04T16:18:33.683Z,25.15
2022-10-04T16:19:32.693Z,25.02
2022-10-04T16:20:33.783Z,25.07
2022-10-04T16:21:32.704Z,25.07
2022-10-04T16:22:32.686Z,24.89
2022-10-04T16:23:32.682Z,24.94
2022-10-04T16:24:32.681Z,24.92
2022-10-04T16:25:34.295Z,24.89
2022-10-04T16:26:32.668Z,24.80
2022-10-04T16:27:32.664Z,24.86
2022-10-04T16:28:32.753Z,24.77
2022-10-04T16:29:32.666Z,24.70
2022-10-04T16:30:33.795Z,24.67
2022-10-04T16:31:32.770Z,24.64
2022-10-04T16:32:32.668Z,24.64
2022-10-04T16:33:32.659Z,24.64
2022-10-04T16:34:32.662Z,24.59
2022-10-04T16:35:33.672Z,24.44
2022-10-04T16:36:33.826Z,24.52
2022-10-04T16:37:34.288Z,24.49
2022-10-04T16:38:34.293Z,24.45
2022-10-04T16:39:34.305Z,24.42
2022-10-04T16:40:34.319Z,24.32
2022-10-04T16:41:34.294Z,24.27
2022-10-04T16:42:34.308Z,24.30
2022-10-04T16:43:33.661Z,24.22
2022-10-04T16:44:34.329Z,24.22
2022-10-04T16:45:34.356Z,24.19
2022-10-04T16:46:34.308Z,24.15
2022-10-04T16:47:32.644Z,24.14
2022-10-04T16:48:34.326Z,24.14
2022-10-04T16:49:36.569Z,24.08
2022-10-04T16:50:34.316Z,24.09
2022-10-04T16:51:34.324Z,24.11
2022-10-04T16:52:34.321Z,23.97
2022-10-04T16:53:34.308Z,23.92
2022-10-04T16:54:34.333Z,23.94
2022-10-04T16:55:34.327Z,23.90
2022-10-04T16:56:34.314Z,23.90
2022-10-04T16:57:34.310Z,23.85
2022-10-04T16:58:34.333Z,23.84
2022-10-04T16:59:34.338Z,23.77
2022-10-04T17:00:32.726Z,23.77
2022-10-04T17:01:34.334Z,23.72
2022-10-04T17:02:32.612Z,23.70
2022-10-04T17:03:34.868Z,23.67
2022-10-04T17:04:32.651Z,23.66
2022-10-04T17:05:34.414Z,23.63
2022-10-04T17:06:32.649Z,23.60
2022-10-04T17:07:32.655Z,23.59
2022-10-04T17:08:33.840Z,23.57
2022-10-04T17:09:33.847Z,23.45
2022-10-04T17:10:33.619Z,23.48
2022-10-04T17:11:32.621Z,23.48
2022-10-04T17:12:34.341Z,23.42
2022-10-04T17:13:33.609Z,23.42
2022-10-04T17:14:33.852Z,23.38
2022-10-04T17:15:33.741Z,23.37
2022-10-04T17:16:34.343Z,23.41
2022-10-04T17:17:32.605Z,23.40